createdAt,value
2019-02-26T00:00:10.000Z,25
2019-02-26T00:01:10.000Z,25
2019-02-26T00:02:10.000Z,25
2019-02-26T00:03:10.000Z,25
2019-02-26T00:04:10.000Z,25
2019-02-26T00:05:10.000Z,25
2019-02-26T00:06:10.000Z,25
2019-02-26T00:08:10.000Z,25
2019-02-26T00:09:10.000Z,25
2019-02-26T00:10:10.000Z,25
2019-02-26T00:11:10.000Z,25
2019-02-26T00:12:10.000Z,25
2019-02-26T00:13:10.000Z,25
2019-02-26T00:15:10.000Z,25
2019-02-26T00:16:10.000Z,25
2019-02-26T00:17:10.000Z,25
2019-02-26T00:18:10.000Z,25
2019-02-26T00:19:10.000Z,25
2019-02-26T00:20:10.000Z,25
2019-02-26T00:21:10.000Z,25
2019-02-26T00:22:10.000Z,25
2019-02-26T00:23:10.000Z,25
2019-02-26T00:24:10.000Z,25
2019-02-26T00:25:10.000Z,25
2019-02-26T00:26:10.000Z,25
2019-02-26T00:27:10.000Z,25
2019-02-26T00:28:10.000Z,25
2019-02-26T00:29:10.000Z,25
2019-02-26T00:30:10.000Z,25
2019-02-26T00:31:10.000Z,25
2019-02-26T00:32:10.000Z,25
2019-02-26T00:33:10.000Z,25
2019-02-26T00:34:10.000Z,25
2019-02-26T00:35:10.000Z,25
2019-02-26T00:36:10.000Z,25
2019-02-26T00:37:10.000Z,25
2019-02-26T00:38:10.000Z,25
2019-02-26T00:39:10.000Z,25
2019-02-26T00:41:10.000Z,25
2019-02-26T00:43:10.000Z,25
2019-02-26T00:44:10.000Z,25
2019-02-26T00:45:10.000Z,25
2019-02-26T00:47:10.000Z,25
2019-02-26T00:48:10.000Z,25
2019-02-26T00:49:10.000Z,25
2019-02-26T00:50:10.000Z,25
2019-02-26T00:51:10.000Z,25
2019-02-26T00:52:10.000Z,25
2019-02-26T00:53:10.000Z,25
2019-02-26T00:54:10.000Z,25
2019-02-26T00:55:10.000Z,25
2019-02-26T00:56:10.000Z,25
2019-02-26T00:57:10.000Z,25
2019-02-26T00:58:10.000Z,25
2019-02-26T00:59:10.000Z,25
2019-02-26T01:00:10.000Z,25
2019-02-26T01:01:10.000Z,25
2019-02-26T01:02:10.000Z,25
2019-02-26T01:03:10.000Z,25
2019-02-26T01:04:10.000Z,25
2019-02-26T01:05:10.000Z,25
2019-02-26T01:06:10.000Z,25
2019-02-26T01:07:10.000Z,25
2019-02-26T01:09:10.000Z,25
2019-02-26T01:10:10.000Z,25
2019-02-26T01:11:10.000Z,25
2019-02-26T01:12:10.000Z,25
2019-02-26T01:13:10.000Z,25
2019-02-26T01:14:10.000Z,25
2019-02-26T01:15:10.000Z,25
2019-02-26T01:16:10.000Z,25
2019-02-26T01:17:10.000Z,25
2019-02-26T01:18:10.000Z,25
2019-02-26T01:19:10.000Z,25
2019-02-26T01:20:10.000Z,25
2019-02-26T01:21:10.000Z,25
2019-02-26T01:22:10.000Z,25
2019-02-26T01:23:10.000Z,25
2019-02-26T01:25:10.000Z,25
2019-02-26T01:26:10.000Z,25
2019-02-26T01:27:10.000Z,25
2019-02-26T01:28:10.000Z,25
2019-02-26T01:29:11.000Z,25
2019-02-26T01:30:11.000Z,25
2019-02-26T01:31:11.000Z,25
2019-02-26T01:32:11.000Z,25
2019-02-26T01:33:11.000Z,25
2019-02-26T01:34:11.000Z,25
2019-02-26T01:36:11.000Z,25
2019-02-26T01:37:11.000Z,25
2019-02-26T01:38:11.000Z,25
2019-02-26T01:39:11.000Z,25
2019-02-26T01:40:11.000Z,25
2019-02-26T01:41:11.000Z,25
2019-02-26T01:42:11.000Z,25
2019-02-26T01:44:11.000Z,25
2019-02-26T01:45:11.000Z,25
2019-02-26T01:46:11.000Z,25
2019-02-26T01:48:11.000Z,25
2019-02-26T01:50:11.000Z,25
2019-02-26T01:51:11.000Z,25
2019-02-26T01:52:11.000Z,25
2019-02-26T01:53:11.000Z,25
2019-02-26T01:54:11.000Z,25
2019-02-26T01:55:11.000Z,25
2019-02-26T01:56:11.000Z,25
2019-02-26T01:57:11.000Z,25
2019-02-26T01:58:11.000Z,25
2019-02-26T01:59:11.000Z,25
2019-02-26T02:00:11.000Z,26
2019-02-26T02:01:11.000Z,26
2019-02-26T02:02:11.000Z,25
2019-02-26T02:03:11.000Z,25
2019-02-26T02:04:11.000Z,25
2019-02-26T02:05:11.000Z,25
2019-02-26T02:06:11.000Z,25
2019-02-26T02:07:11.000Z,25
2019-02-26T02:08:11.000Z,25
2019-02-26T02:09:11.000Z,25
2019-02-26T02:10:11.000Z,25
2019-02-26T02:11:11.000Z,25
2019-02-26T02:12:11.000Z,25
2019-02-26T02:13:11.000Z,25
2019-02-26T02:14:11.000Z,25
2019-02-26T02:15:11.000Z,25
2019-02-26T02:16:11.000Z,25
2019-02-26T02:17:11.000Z,25
2019-02-26T02:18:11.000Z,25
2019-02-26T02:19:11.000Z,25
2019-02-26T02:20:11.000Z,25
2019-02-26T02:21:11.000Z,25
2019-02-26T02:22:11.000Z,25
2019-02-26T02:23:11.000Z,25
2019-02-26T02:25:11.000Z,25
2019-02-26T02:26:11.000Z,25
2019-02-26T02:27:11.000Z,25
2019-02-26T02:28:11.000Z,25
2019-02-26T02:29:11.000Z,25
2019-02-26T02:30:11.000Z,25
2019-02-26T02:31:11.000Z,25
2019-02-26T02:32:11.000Z,25
2019-02-26T02:33:11.000Z,25
2019-02-26T02:34:11.000Z,25
2019-02-26T02:35:11.000Z,25
2019-02-26T02:36:11.000Z,25
2019-02-26T02:37:11.000Z,25
2019-02-26T02:38:11.000Z,25
2019-02-26T02:39:11.000Z,25
2019-02-26T02:40:11.000Z,25
2019-02-26T02:41:11.000Z,26
2019-02-26T02:42:11.000Z,25
2019-02-26T02:44:11.000Z,25
2019-02-26T02:45:11.000Z,25
2019-02-26T02:46:11.000Z,25
2019-02-26T02:47:11.000Z,26
2019-02-26T02:48:11.000Z,26
2019-02-26T02:49:11.000Z,25
2019-02-26T02:51:11.000Z,25
2019-02-26T02:52:11.000Z,25
2019-02-26T02:53:11.000Z,25
2019-02-26T02:54:11.000Z,25
2019-02-26T02:55:11.000Z,25
2019-02-26T02:56:11.000Z,25
2019-02-26T02:57:11.000Z,25
2019-02-26T02:58:11.000Z,25
2019-02-26T02:59:11.000Z,25
2019-02-26T03:00:11.000Z,25
2019-02-26T03:01:11.000Z,26
2019-02-26T03:02:11.000Z,25
2019-02-26T03:03:11.000Z,25
2019-02-26T03:04:11.000Z,26
2019-02-26T03:05:11.000Z,26
2019-02-26T03:06:11.000Z,26
2019-02-26T03:07:11.000Z,25
2019-02-26T03:08:11.000Z,26
2019-02-26T03:09:11.000Z,25
2019-02-26T03:10:11.000Z,25
2019-02-26T03:12:11.000Z,25
2019-02-26T03:13:11.000Z,26
2019-02-26T03:14:11.000Z,26
2019-02-26T03:15:11.000Z,25
2019-02-26T03:16:11.000Z,26
2019-02-26T03:18:11.000Z,25
2019-02-26T03:19:11.000Z,25
2019-02-26T03:20:11.000Z,25
2019-02-26T03:21:11.000Z,26
2019-02-26T03:22:11.000Z,26
2019-02-26T03:23:11.000Z,26
2019-02-26T03:24:11.000Z,26
2019-02-26T03:25:11.000Z,26
2019-02-26T03:26:11.000Z,26
2019-02-26T03:27:11.000Z,26
2019-02-26T03:29:11.000Z,26
2019-02-26T03:30:11.000Z,26
2019-02-26T03:31:11.000Z,26
2019-02-26T03:32:11.000Z,26
2019-02-26T03:33:11.000Z,26
2019-02-26T03:34:11.000Z,26
2019-02-26T03:35:11.000Z,26
2019-02-26T03:36:11.000Z,25
2019-02-26T03:37:11.000Z,25
2019-02-26T03:38:11.000Z,26
2019-02-26T03:39:11.000Z,26
2019-02-26T03:40:11.000Z,26
2019-02-26T03:41:11.000Z,26
2019-02-26T03:42:11.000Z,26
2019-02-26T03:43:11.000Z,25
2019-02-26T03:44:11.000Z,25
2019-02-26T03:45:11.000Z,25
2019-02-26T03:46:11.000Z,25
2019-02-26T03:48:11.000Z,25
2019-02-26T03:49:11.000Z,26
2019-02-26T03:50:11.000Z,26
2019-02-26T03:51:11.000Z,26
2019-02-26T03:52:11.000Z,25
2019-02-26T03:54:11.000Z,25
2019-02-26T03:55:11.000Z,25
2019-02-26T03:57:11.000Z,25
2019-02-26T03:58:11.000Z,25
2019-02-26T04:00:11.000Z,25
2019-02-26T04:02:11.000Z,25
2019-02-26T04:03:11.000Z,25
2019-02-26T04:04:11.000Z,25
2019-02-26T04:05:11.000Z,25
2019-02-26T04:06:11.000Z,26
2019-02-26T04:07:11.000Z,25
2019-02-26T04:08:11.000Z,25
2019-02-26T04:09:11.000Z,25
2019-02-26T04:10:11.000Z,25
2019-02-26T04:12:11.000Z,25
2019-02-26T04:13:11.000Z,25
2019-02-26T04:14:11.000Z,25
2019-02-26T04:15:11.000Z,25
2019-02-26T04:16:11.000Z,25
2019-02-26T04:17:11.000Z,25
2019-02-26T04:18:11.000Z,25
2019-02-26T04:19:11.000Z,25
2019-02-26T04:20:11.000Z,25
2019-02-26T04:21:11.000Z,25
2019-02-26T04:22:11.000Z,25
2019-02-26T04:23:11.000Z,25
2019-02-26T04:24:11.000Z,25
2019-02-26T04:25:11.000Z,25
2019-02-26T04:26:11.000Z,25
2019-02-26T04:28:11.000Z,25
2019-02-26T04:29:11.000Z,25
2019-02-26T04:30:11.000Z,25
2019-02-26T04:31:11.000Z,25
2019-02-26T04:33:11.000Z,25
2019-02-26T04:34:11.000Z,25
2019-02-26T04:36:11.000Z,27
2019-02-26T04:37:11.000Z,27
2019-02-26T04:38:11.000Z,27
2019-02-26T04:39:11.000Z,27
2019-02-26T04:40:11.000Z,27
2019-02-26T04:41:11.000Z,27
2019-02-26T04:42:11.000Z,27
2019-02-26T04:43:11.000Z,27
2019-02-26T04:44:11.000Z,27
2019-02-26T04:45:11.000Z,27
2019-02-26T04:46:11.000Z,27
2019-02-26T04:47:10.000Z,27
2019-02-26T04:48:10.000Z,27
2019-02-26T04:49:10.000Z,27
2019-02-26T04:50:10.000Z,27
2019-02-26T04:51:10.000Z,27
2019-02-26T04:53:10.000Z,27
2019-02-26T04:54:10.000Z,27
2019-02-26T04:55:10.000Z,27
2019-02-26T04:57:10.000Z,27
2019-02-26T04:58:10.000Z,27
2019-02-26T04:59:10.000Z,27
2019-02-26T05:01:10.000Z,27
2019-02-26T05:02:10.000Z,27
2019-02-26T05:04:10.000Z,27
2019-02-26T05:05:10.000Z,27
2019-02-26T05:06:10.000Z,27
2019-02-26T05:07:10.000Z,27
2019-02-26T05:08:10.000Z,27
2019-02-26T05:09:10.000Z,27
2019-02-26T05:10:10.000Z,27
2019-02-26T05:11:10.000Z,27
2019-02-26T05:12:10.000Z,27
2019-02-26T05:14:10.000Z,27
2019-02-26T05:15:10.000Z,27
2019-02-26T05:16:10.000Z,27
2019-02-26T05:17:10.000Z,27
2019-02-26T05:18:10.000Z,27
2019-02-26T05:19:10.000Z,27
2019-02-26T05:20:10.000Z,27
2019-02-26T05:21:10.000Z,27
2019-02-26T05:22:10.000Z,27
2019-02-26T05:23:10.000Z,27
2019-02-26T05:24:10.000Z,27
2019-02-26T05:25:10.000Z,27
2019-02-26T05:26:10.000Z,27
2019-02-26T05:27:10.000Z,27
2019-02-26T05:28:10.000Z,27
2019-02-26T05:30:10.000Z,27
2019-02-26T05:31:10.000Z,27
2019-02-26T05:32:10.000Z,27
2019-02-26T05:33:10.000Z,27
2019-02-26T05:34:10.000Z,27
2019-02-26T05:35:10.000Z,27
2019-02-26T05:36:10.000Z,27
2019-02-26T05:37:10.000Z,27
2019-02-26T05:38:10.000Z,27
2019-02-26T05:39:10.000Z,27
2019-02-26T05:40:10.000Z,27
2019-02-26T05:42:10.000Z,27
2019-02-26T05:43:10.000Z,27
2019-02-26T05:44:10.000Z,27
2019-02-26T05:45:10.000Z,27
2019-02-26T05:46:10.000Z,27
2019-02-26T05:47:10.000Z,27
2019-02-26T05:48:10.000Z,27
2019-02-26T05:49:10.000Z,27
2019-02-26T05:50:10.000Z,27
2019-02-26T05:51:10.000Z,27
2019-02-26T05:52:11.000Z,27
2019-02-26T05:53:11.000Z,27
2019-02-26T05:54:11.000Z,27
2019-02-26T05:55:11.000Z,27
2019-02-26T05:56:11.000Z,27
2019-02-26T05:58:11.000Z,27
2019-02-26T05:59:11.000Z,27
2019-02-26T06:01:11.000Z,27
2019-02-26T06:02:11.000Z,27
2019-02-26T06:03:11.000Z,27
2019-02-26T06:04:11.000Z,27
2019-02-26T06:05:11.000Z,27
2019-02-26T06:06:11.000Z,27
2019-02-26T06:07:11.000Z,27
2019-02-26T06:08:11.000Z,27
2019-02-26T06:09:11.000Z,27
2019-02-26T06:10:11.000Z,27
2019-02-26T06:11:11.000Z,27
2019-02-26T06:12:11.000Z,27
2019-02-26T06:14:11.000Z,27
2019-02-26T06:15:11.000Z,27
2019-02-26T06:16:11.000Z,27
2019-02-26T06:17:11.000Z,27
2019-02-26T06:18:11.000Z,26
2019-02-26T06:19:11.000Z,27
2019-02-26T06:20:11.000Z,26
2019-02-26T06:21:11.000Z,26
2019-02-26T06:22:11.000Z,26
2019-02-26T06:24:11.000Z,26
2019-02-26T06:25:11.000Z,26
2019-02-26T06:26:11.000Z,26
2019-02-26T06:27:11.000Z,26
2019-02-26T06:28:11.000Z,26
2019-02-26T06:30:11.000Z,27
2019-02-26T06:31:11.000Z,27
2019-02-26T06:32:11.000Z,27
2019-02-26T06:33:11.000Z,27
2019-02-26T06:34:11.000Z,27
2019-02-26T06:35:11.000Z,27
2019-02-26T06:36:11.000Z,27
2019-02-26T06:37:11.000Z,27
2019-02-26T06:38:11.000Z,27
2019-02-26T06:39:11.000Z,27
2019-02-26T06:40:11.000Z,27
2019-02-26T06:41:11.000Z,27
2019-02-26T06:42:11.000Z,27
2019-02-26T06:43:11.000Z,27
2019-02-26T06:45:11.000Z,26
2019-02-26T06:46:11.000Z,26
2019-02-26T06:47:11.000Z,26
2019-02-26T06:48:11.000Z,26
2019-02-26T06:49:11.000Z,26
2019-02-26T06:50:11.000Z,26
2019-02-26T06:51:11.000Z,26
2019-02-26T06:52:11.000Z,26
2019-02-26T06:53:11.000Z,26
2019-02-26T06:54:11.000Z,26
2019-02-26T06:55:11.000Z,26
2019-02-26T06:56:11.000Z,26
2019-02-26T06:58:10.000Z,26
2019-02-26T06:59:10.000Z,26
2019-02-26T07:00:10.000Z,26
2019-02-26T07:02:10.000Z,26
2019-02-26T07:03:10.000Z,26
2019-02-26T07:04:10.000Z,26
2019-02-26T07:05:10.000Z,25
2019-02-26T07:06:10.000Z,26
2019-02-26T07:07:10.000Z,25
2019-02-26T07:08:10.000Z,25
2019-02-26T07:09:10.000Z,25
2019-02-26T07:10:10.000Z,25
2019-02-26T07:11:10.000Z,25
2019-02-26T07:12:10.000Z,25
2019-02-26T07:13:10.000Z,25
2019-02-26T07:14:10.000Z,25
2019-02-26T07:16:10.000Z,25
2019-02-26T07:17:10.000Z,25
2019-02-26T07:18:10.000Z,25
2019-02-26T07:20:10.000Z,25
2019-02-26T07:21:10.000Z,25
2019-02-26T07:22:10.000Z,25
2019-02-26T07:23:10.000Z,25
2019-02-26T07:24:10.000Z,24
2019-02-26T07:25:10.000Z,25
2019-02-26T07:26:10.000Z,25
2019-02-26T07:27:11.000Z,25
2019-02-26T07:28:11.000Z,25
2019-02-26T07:29:11.000Z,25
2019-02-26T07:30:11.000Z,25
2019-02-26T07:32:11.000Z,25
2019-02-26T07:33:11.000Z,25
2019-02-26T07:34:11.000Z,25
2019-02-26T07:35:11.000Z,25
2019-02-26T07:36:11.000Z,25
2019-02-26T07:37:11.000Z,25
2019-02-26T07:38:11.000Z,25
2019-02-26T07:39:11.000Z,25
2019-02-26T07:40:11.000Z,25
2019-02-26T07:41:11.000Z,25
2019-02-26T07:42:11.000Z,25
2019-02-26T07:44:11.000Z,25
2019-02-26T07:45:11.000Z,25
2019-02-26T07:47:11.000Z,25
2019-02-26T07:49:11.000Z,25
2019-02-26T07:50:11.000Z,26
2019-02-26T07:51:11.000Z,25
2019-02-26T07:52:11.000Z,26
2019-02-26T07:54:11.000Z,25
2019-02-26T07:55:11.000Z,25
2019-02-26T07:56:11.000Z,25
2019-02-26T07:57:11.000Z,25
2019-02-26T07:58:11.000Z,25
2019-02-26T07:59:11.000Z,25
2019-02-26T08:00:11.000Z,25
2019-02-26T08:02:11.000Z,25
2019-02-26T08:03:11.000Z,24
2019-02-26T08:04:11.000Z,24
2019-02-26T08:05:11.000Z,24
2019-02-26T08:06:11.000Z,24
2019-02-26T08:07:11.000Z,24
2019-02-26T08:08:11.000Z,24
2019-02-26T08:09:11.000Z,24
2019-02-26T08:10:11.000Z,24
2019-02-26T08:12:11.000Z,23
2019-02-26T08:13:11.000Z,23
2019-02-26T08:15:11.000Z,23
2019-02-26T08:17:11.000Z,23
2019-02-26T08:18:11.000Z,23
2019-02-26T08:19:11.000Z,23
2019-02-26T08:20:11.000Z,23
2019-02-26T08:21:11.000Z,23
2019-02-26T08:22:11.000Z,23
2019-02-26T08:23:11.000Z,23
2019-02-26T08:25:11.000Z,23
2019-02-26T08:26:11.000Z,23
2019-02-26T08:27:11.000Z,22
2019-02-26T08:28:11.000Z,22
2019-02-26T08:30:11.000Z,22
2019-02-26T08:31:11.000Z,22
2019-02-26T08:33:11.000Z,22
2019-02-26T08:34:11.000Z,22
2019-02-26T08:35:11.000Z,22
2019-02-26T08:36:11.000Z,22
2019-02-26T08:37:11.000Z,21
2019-02-26T08:38:11.000Z,21
2019-02-26T08:39:11.000Z,21
2019-02-26T08:41:11.000Z,21
2019-02-26T08:42:11.000Z,22
2019-02-26T08:43:11.000Z,22
2019-02-26T08:44:11.000Z,22
2019-02-26T08:45:11.000Z,23
2019-02-26T08:46:11.000Z,23
2019-02-26T08:47:11.000Z,23
2019-02-26T08:48:11.000Z,23
2019-02-26T08:49:11.000Z,24
2019-02-26T08:51:11.000Z,24
2019-02-26T08:52:11.000Z,24
2019-02-26T08:53:11.000Z,25
2019-02-26T08:54:11.000Z,25
2019-02-26T08:55:11.000Z,25
2019-02-26T08:56:11.000Z,25
2019-02-26T08:57:11.000Z,26
2019-02-26T08:58:11.000Z,26
2019-02-26T08:59:11.000Z,26
2019-02-26T09:00:11.000Z,26
2019-02-26T09:01:11.000Z,26
2019-02-26T09:02:11.000Z,26
2019-02-26T09:03:11.000Z,26
2019-02-26T09:05:11.000Z,26
2019-02-26T09:06:11.000Z,26
2019-02-26T09:07:11.000Z,27
2019-02-26T09:08:11.000Z,27
2019-02-26T09:09:11.000Z,27
2019-02-26T09:10:11.000Z,27
2019-02-26T09:11:11.000Z,27
2019-02-26T09:12:11.000Z,27
2019-02-26T09:13:11.000Z,27
2019-02-26T09:14:11.000Z,27
2019-02-26T09:15:11.000Z,27
2019-02-26T09:16:11.000Z,28
2019-02-26T09:18:11.000Z,28
2019-02-26T09:19:11.000Z,28
2019-02-26T09:20:11.000Z,28
2019-02-26T09:21:11.000Z,28
2019-02-26T09:22:11.000Z,28
2019-02-26T09:23:11.000Z,28
2019-02-26T09:24:11.000Z,28
2019-02-26T09:25:11.000Z,28
2019-02-26T09:26:11.000Z,28
2019-02-26T09:28:11.000Z,28
2019-02-26T09:29:11.000Z,28
2019-02-26T09:30:11.000Z,28
2019-02-26T09:31:11.000Z,28
2019-02-26T09:32:11.000Z,29
2019-02-26T09:33:11.000Z,29
2019-02-26T09:34:11.000Z,29
2019-02-26T09:35:11.000Z,29
2019-02-26T09:36:11.000Z,29
2019-02-26T09:37:11.000Z,29
2019-02-26T09:38:11.000Z,29
2019-02-26T09:39:11.000Z,29
2019-02-26T09:40:11.000Z,29
2019-02-26T09:41:11.000Z,29
2019-02-26T09:42:11.000Z,29
2019-02-26T09:43:11.000Z,30
2019-02-26T09:44:11.000Z,30
2019-02-26T09:45:11.000Z,30
2019-02-26T09:46:11.000Z,30
2019-02-26T09:47:11.000Z,30
2019-02-26T09:48:11.000Z,30
2019-02-26T09:49:11.000Z,30
2019-02-26T09:50:11.000Z,30
2019-02-26T09:51:11.000Z,30
2019-02-26T09:52:11.000Z,30
2019-02-26T09:53:11.000Z,31
2019-02-26T09:54:11.000Z,31
2019-02-26T09:55:11.000Z,31
2019-02-26T09:57:11.000Z,31
2019-02-26T09:58:11.000Z,31
2019-02-26T10:00:11.000Z,31
2019-02-26T10:01:11.000Z,31
2019-02-26T10:02:11.000Z,31
2019-02-26T10:03:11.000Z,32
2019-02-26T10:04:11.000Z,32
2019-02-26T10:05:11.000Z,32
2019-02-26T10:06:11.000Z,32
2019-02-26T10:07:11.000Z,32
2019-02-26T10:08:11.000Z,32
2019-02-26T10:09:11.000Z,32
2019-02-26T10:10:11.000Z,32
2019-02-26T10:11:11.000Z,32
2019-02-26T10:12:11.000Z,32
2019-02-26T10:13:11.000Z,32
2019-02-26T10:14:11.000Z,32
2019-02-26T10:15:11.000Z,32
2019-02-26T10:16:11.000Z,32
2019-02-26T10:17:11.000Z,32
2019-02-26T10:18:11.000Z,32
2019-02-26T10:20:11.000Z,32
2019-02-26T10:21:11.000Z,32
2019-02-26T10:22:11.000Z,32
2019-02-26T10:23:11.000Z,32
2019-02-26T10:24:11.000Z,32
2019-02-26T10:25:11.000Z,32
2019-02-26T10:26:11.000Z,32
2019-02-26T10:27:11.000Z,32
2019-02-26T10:29:11.000Z,32
2019-02-26T10:30:11.000Z,32
2019-02-26T10:31:11.000Z,32
2019-02-26T10:33:11.000Z,32
2019-02-26T10:34:11.000Z,32
2019-02-26T10:35:11.000Z,32
2019-02-26T10:36:11.000Z,32
2019-02-26T10:37:11.000Z,32
2019-02-26T10:39:11.000Z,32
2019-02-26T10:40:11.000Z,32
2019-02-26T10:41:11.000Z,32
2019-02-26T10:42:11.000Z,32
2019-02-26T10:43:11.000Z,32
2019-02-26T10:44:11.000Z,32
2019-02-26T10:45:11.000Z,32
2019-02-26T10:46:11.000Z,32
2019-02-26T10:47:11.000Z,32
2019-02-26T10:48:11.000Z,32
2019-02-26T10:49:11.000Z,32
2019-02-26T10:50:11.000Z,32
2019-02-26T10:51:11.000Z,32
2019-02-26T10:52:11.000Z,32
2019-02-26T10:54:11.000Z,32
2019-02-26T10:55:11.000Z,32
2019-02-26T10:56:11.000Z,32
2019-02-26T10:57:11.000Z,32
2019-02-26T10:58:11.000Z,32
2019-02-26T10:59:11.000Z,32
2019-02-26T11:01:11.000Z,32
2019-02-26T11:02:11.000Z,32
2019-02-26T11:04:11.000Z,32
2019-02-26T11:05:11.000Z,32
2019-02-26T11:07:11.000Z,32
2019-02-26T11:08:11.000Z,32
2019-02-26T11:10:11.000Z,32
2019-02-26T11:11:11.000Z,32
2019-02-26T11:12:11.000Z,32
2019-02-26T11:13:11.000Z,32
2019-02-26T11:14:11.000Z,32
2019-02-26T11:15:11.000Z,32
2019-02-26T11:16:11.000Z,32
2019-02-26T11:17:11.000Z,32
2019-02-26T11:18:11.000Z,32
2019-02-26T11:19:11.000Z,32
2019-02-26T11:21:11.000Z,32
2019-02-26T11:22:11.000Z,33
2019-02-26T11:23:11.000Z,32
2019-02-26T11:24:11.000Z,32
2019-02-26T11:25:11.000Z,32
2019-02-26T11:27:11.000Z,32
2019-02-26T11:28:11.000Z,32
2019-02-26T11:29:11.000Z,32
2019-02-26T11:30:11.000Z,32
2019-02-26T11:31:11.000Z,32
2019-02-26T11:32:11.000Z,32
2019-02-26T11:33:11.000Z,32
2019-02-26T11:34:11.000Z,32
2019-02-26T11:35:11.000Z,32
2019-02-26T11:36:11.000Z,32
2019-02-26T11:37:11.000Z,32
2019-02-26T11:38:11.000Z,32
2019-02-26T11:39:11.000Z,32
2019-02-26T11:40:11.000Z,32
2019-02-26T11:41:11.000Z,32
2019-02-26T11:42:11.000Z,32
2019-02-26T11:43:11.000Z,32
2019-02-26T11:44:11.000Z,32
2019-02-26T11:45:11.000Z,32
2019-02-26T11:46:11.000Z,32
2019-02-26T11:47:11.000Z,32
2019-02-26T11:48:11.000Z,32
2019-02-26T11:50:11.000Z,32
2019-02-26T11:51:11.000Z,32
2019-02-26T11:52:11.000Z,32
2019-02-26T11:53:11.000Z,32
2019-02-26T11:55:11.000Z,32
2019-02-26T11:57:11.000Z,32
2019-02-26T11:58:11.000Z,32
2019-02-26T11:59:11.000Z,32
2019-02-26T12:00:11.000Z,32
2019-02-26T12:01:11.000Z,32
2019-02-26T12:02:11.000Z,32
2019-02-26T12:04:11.000Z,32
2019-02-26T12:05:11.000Z,32
2019-02-26T12:06:11.000Z,32
2019-02-26T12:07:11.000Z,32
2019-02-26T12:08:11.000Z,32
2019-02-26T12:09:11.000Z,32
2019-02-26T12:10:11.000Z,32
2019-02-26T12:11:11.000Z,32
2019-02-26T12:12:11.000Z,32
2019-02-26T12:13:11.000Z,32
2019-02-26T12:14:11.000Z,32
2019-02-26T12:15:11.000Z,32
2019-02-26T12:16:11.000Z,32
2019-02-26T12:17:11.000Z,32
2019-02-26T12:18:11.000Z,32
2019-02-26T12:19:11.000Z,32
2019-02-26T12:20:11.000Z,32
2019-02-26T12:21:11.000Z,32
2019-02-26T12:22:11.000Z,32
2019-02-26T12:23:11.000Z,32
2019-02-26T12:24:11.000Z,32
2019-02-26T12:25:11.000Z,32
2019-02-26T12:26:11.000Z,32
2019-02-26T12:27:11.000Z,32
2019-02-26T12:28:11.000Z,32
2019-02-26T12:29:11.000Z,32
2019-02-26T12:30:11.000Z,32
2019-02-26T12:31:11.000Z,32
2019-02-26T12:32:11.000Z,32
2019-02-26T12:34:11.000Z,32
2019-02-26T12:35:11.000Z,32
2019-02-26T12:37:11.000Z,32
2019-02-26T12:43:05.000Z,32
2019-02-26T12:44:05.000Z,32
2019-02-26T12:45:05.000Z,32
2019-02-26T12:46:05.000Z,32
2019-02-26T12:47:05.000Z,32
2019-02-26T12:48:05.000Z,32
2019-02-26T12:49:05.000Z,32
2019-02-26T12:50:05.000Z,32
2019-02-26T12:51:05.000Z,32
2019-02-26T12:52:05.000Z,32
2019-02-26T12:53:05.000Z,32
2019-02-26T12:54:05.000Z,32
2019-02-26T12:55:05.000Z,32
2019-02-26T12:56:05.000Z,32
2019-02-26T12:57:05.000Z,32
2019-02-26T12:58:05.000Z,32
2019-02-26T12:59:05.000Z,32
2019-02-26T13:00:05.000Z,32
2019-02-26T13:01:05.000Z,32
2019-02-26T13:02:05.000Z,32
2019-02-26T13:04:05.000Z,32
2019-02-26T13:06:05.000Z,32
2019-02-26T13:07:05.000Z,32
2019-02-26T13:08:05.000Z,32
2019-02-26T13:09:05.000Z,32
2019-02-26T13:10:05.000Z,32
2019-02-26T13:11:05.000Z,32
2019-02-26T13:12:05.000Z,32
2019-02-26T13:13:05.000Z,32
2019-02-26T13:15:05.000Z,32
2019-02-26T13:16:05.000Z,32
2019-02-26T13:17:05.000Z,33
2019-02-26T13:18:05.000Z,33
2019-02-26T13:19:05.000Z,33
2019-02-26T13:20:05.000Z,32
2019-02-26T13:22:05.000Z,32
2019-02-26T13:23:05.000Z,32
2019-02-26T13:24:05.000Z,32
2019-02-26T13:26:05.000Z,32
2019-02-26T13:27:05.000Z,32
2019-02-26T13:33:12.000Z,32
2019-02-26T13:34:12.000Z,33
2019-02-26T13:35:12.000Z,33
2019-02-26T13:36:12.000Z,33
2019-02-26T13:37:12.000Z,33
2019-02-26T13:38:12.000Z,33
2019-02-26T13:39:12.000Z,32
2019-02-26T13:40:12.000Z,32
2019-02-26T13:43:12.000Z,32
2019-02-26T13:45:12.000Z,32
2019-02-26T13:46:12.000Z,33
2019-02-26T13:47:12.000Z,33
2019-02-26T13:48:12.000Z,32
2019-02-26T13:49:12.000Z,32
2019-02-26T13:50:12.000Z,32
2019-02-26T13:51:12.000Z,32
2019-02-26T13:52:12.000Z,32
2019-02-26T13:53:12.000Z,32
2019-02-26T13:54:12.000Z,32
2019-02-26T13:55:12.000Z,32
2019-02-26T13:56:12.000Z,32
2019-02-26T13:57:12.000Z,32
2019-02-26T13:58:12.000Z,32
2019-02-26T13:59:12.000Z,32
2019-02-26T14:00:12.000Z,32
2019-02-26T14:01:12.000Z,32
2019-02-26T14:02:12.000Z,32
2019-02-26T14:04:12.000Z,32
2019-02-26T14:06:12.000Z,32
2019-02-26T14:07:12.000Z,32
2019-02-26T14:08:12.000Z,32
2019-02-26T14:10:12.000Z,32
2019-02-26T14:11:12.000Z,32
2019-02-26T14:12:12.000Z,32
2019-02-26T14:13:12.000Z,32
2019-02-26T14:14:12.000Z,32
2019-02-26T14:15:12.000Z,31
2019-02-26T14:16:12.000Z,32
2019-02-26T14:17:12.000Z,32
2019-02-26T14:18:12.000Z,32
2019-02-26T14:20:12.000Z,32
2019-02-26T14:21:12.000Z,32
2019-02-26T14:22:12.000Z,32
2019-02-26T14:23:12.000Z,32
2019-02-26T14:24:12.000Z,32
2019-02-26T14:25:12.000Z,32
2019-02-26T14:26:12.000Z,32
2019-02-26T14:28:12.000Z,32
2019-02-26T14:29:12.000Z,32
2019-02-26T14:30:12.000Z,32
2019-02-26T14:31:12.000Z,32
2019-02-26T14:32:12.000Z,32
2019-02-26T14:33:12.000Z,31
2019-02-26T14:35:12.000Z,31
2019-02-26T14:36:12.000Z,30
2019-02-26T14:37:12.000Z,30
2019-02-26T14:38:12.000Z,29
2019-02-26T14:39:12.000Z,29
2019-02-26T14:41:12.000Z,28
2019-02-26T14:42:12.000Z,28
2019-02-26T14:43:12.000Z,28
2019-02-26T14:45:12.000Z,27
2019-02-26T14:46:12.000Z,28
2019-02-26T14:47:12.000Z,28
2019-02-26T14:48:12.000Z,28
2019-02-26T14:49:12.000Z,29
2019-02-26T14:50:12.000Z,29
2019-02-26T14:51:12.000Z,29
2019-02-26T14:52:12.000Z,29
2019-02-26T14:53:12.000Z,30
2019-02-26T14:54:12.000Z,30
2019-02-26T14:55:12.000Z,30
2019-02-26T14:56:12.000Z,30
2019-02-26T14:58:12.000Z,30
2019-02-26T15:00:12.000Z,30
2019-02-26T15:01:12.000Z,30
2019-02-26T15:02:12.000Z,30
2019-02-26T15:03:12.000Z,31
2019-02-26T15:04:12.000Z,31
2019-02-26T15:05:12.000Z,31
2019-02-26T15:06:12.000Z,31
2019-02-26T15:07:12.000Z,31
2019-02-26T15:08:12.000Z,31
2019-02-26T15:09:12.000Z,31
2019-02-26T15:10:12.000Z,31
2019-02-26T15:11:12.000Z,31
2019-02-26T15:12:12.000Z,31
2019-02-26T15:14:12.000Z,31
2019-02-26T15:16:12.000Z,31
2019-02-26T15:17:12.000Z,31
2019-02-26T15:18:12.000Z,31
2019-02-26T15:19:12.000Z,32
2019-02-26T15:20:12.000Z,32
2019-02-26T15:21:12.000Z,32
2019-02-26T15:22:12.000Z,32
2019-02-26T15:23:12.000Z,32
2019-02-26T15:24:12.000Z,32
2019-02-26T15:25:12.000Z,32
2019-02-26T15:26:12.000Z,32
2019-02-26T15:27:12.000Z,32
2019-02-26T15:28:12.000Z,32
2019-02-26T15:29:12.000Z,32
2019-02-26T15:31:12.000Z,32
2019-02-26T15:32:12.000Z,32
2019-02-26T15:33:12.000Z,32
2019-02-26T15:35:12.000Z,32
2019-02-26T15:36:12.000Z,32
2019-02-26T15:37:12.000Z,32
2019-02-26T15:38:12.000Z,32
2019-02-26T15:39:12.000Z,32
2019-02-26T15:40:12.000Z,32
2019-02-26T15:41:12.000Z,32
2019-02-26T15:42:13.000Z,32
2019-02-26T15:43:13.000Z,32
2019-02-26T15:44:13.000Z,32
2019-02-26T15:46:13.000Z,32
2019-02-26T15:48:13.000Z,32
2019-02-26T15:49:13.000Z,32
2019-02-26T15:50:13.000Z,32
2019-02-26T15:51:13.000Z,32
2019-02-26T15:53:13.000Z,32
2019-02-26T15:54:13.000Z,32
2019-02-26T15:55:13.000Z,32
2019-02-26T15:56:13.000Z,32
2019-02-26T15:57:13.000Z,32
2019-02-26T15:59:13.000Z,32
2019-02-26T16:00:13.000Z,32
2019-02-26T16:01:13.000Z,32
2019-02-26T16:03:13.000Z,32
2019-02-26T16:04:13.000Z,32
2019-02-26T16:05:13.000Z,32
2019-02-26T16:06:13.000Z,32
2019-02-26T16:07:13.000Z,32
2019-02-26T16:08:13.000Z,32
2019-02-26T16:09:13.000Z,32
2019-02-26T16:10:13.000Z,32
2019-02-26T16:11:13.000Z,32